< < Back
Terminal Aerodrome Forecast


Current Version              Previous Versions:   1  2  3  4  5  6  7  8  9  

Terminal Aerodrome Forecast

399
FTUS42 KFFC 312153 AAB
TAFFTY
TAF AMD
KFTY 312153Z 3122/0118 27008KT P6SM BKN060
      TEMPO 3122/0102 27010G20KT 3SM -SHRA BKN035
     FM010400 28005KT P6SM SCT060 BKN090
     FM010900 31004KT P6SM FEW020 SCT100
     FM011600 33006KT P6SM SCT045=



Latest METAR

595
SAUS70 KWBC 011000 RRP
MTRFTY
METAR KFTY 010953Z 23004KT 10SM SCT085 14/13 A3000 RMK AO2 SLP152
T01390128


USA.gov is the U.S. government's official web portal to all federal, state and local government web resources and services.